sensor_id;sensor_type;location;lat;lon;timestamp;pressure;altitude;pressure_sealevel;temperature;humidity
24336;BME280;33098;52.400;16.880;2023-04-15T00:00:18;99715.67;;;13.06;69.72
24336;BME280;33098;52.400;16.880;2023-04-15T00:03:06;99715.35;;;13.04;69.85
24336;BME280;33098;52.400;16.880;2023-04-15T00:05:37;99715.98;;;13.03;69.84
24336;BME280;33098;52.400;16.880;2023-04-15T00:08:05;99714.13;;;13.02;69.83
24336;BME280;33098;52.400;16.880;2023-04-15T00:10:33;99714.99;;;13.01;69.95
24336;BME280;33098;52.400;16.880;2023-04-15T00:13:03;99716.14;;;12.98;69.95
24336;BME280;33098;52.400;16.880;2023-04-15T00:15:30;99716.45;;;12.99;70.01
24336;BME280;33098;52.400;16.880;2023-04-15T00:17:57;99713.89;;;12.98;70.11
24336;BME280;33098;52.400;16.880;2023-04-15T00:20:26;99713.06;;;12.99;70.11
24336;BME280;33098;52.400;16.880;2023-04-15T00:22:57;99715.79;;;13.00;70.15
24336;BME280;33098;52.400;16.880;2023-04-15T00:25:27;99713.46;;;13.02;70.33
24336;BME280;33098;52.400;16.880;2023-04-15T00:27:56;99711.27;;;13.04;70.23
24336;BME280;33098;52.400;16.880;2023-04-15T00:30:23;99712.91;;;13.04;70.27
24336;BME280;33098;52.400;16.880;2023-04-15T00:32:50;99710.86;;;13.01;70.20
24336;BME280;33098;52.400;16.880;2023-04-15T00:35:18;99710.59;;;13.00;70.26
24336;BME280;33098;52.400;16.880;2023-04-15T00:37:45;99707.19;;;13.01;70.29
24336;BME280;33098;52.400;16.880;2023-04-15T00:40:17;99708.92;;;13.03;70.32
24336;BME280;33098;52.400;16.880;2023-04-15T00:42:44;99703.33;;;12.98;70.23
24336;BME280;33098;52.400;16.880;2023-04-15T00:45:11;99701.38;;;12.89;70.08
24336;BME280;33098;52.400;16.880;2023-04-15T00:47:40;99700.98;;;12.82;70.33
24336;BME280;33098;52.400;16.880;2023-04-15T00:50:08;99698.20;;;12.81;70.45
24336;BME280;33098;52.400;16.880;2023-04-15T00:52:35;99697.65;;;12.83;70.58
24336;BME280;33098;52.400;16.880;2023-04-15T00:55:02;99696.11;;;12.84;70.51
24336;BME280;33098;52.400;16.880;2023-04-15T00:57:30;99701.02;;;12.83;70.61
24336;BME280;33098;52.400;16.880;2023-04-15T00:59:57;99697.55;;;12.79;70.47
24336;BME280;33098;52.400;16.880;2023-04-15T01:02:24;99694.83;;;12.76;70.47
24336;BME280;33098;52.400;16.880;2023-04-15T01:04:52;99696.39;;;12.74;70.55
24336;BME280;33098;52.400;16.880;2023-04-15T01:07:18;99693.27;;;12.72;70.49
24336;BME280;33098;52.400;16.880;2023-04-15T01:09:45;99700.02;;;12.70;70.57
24336;BME280;33098;52.400;16.880;2023-04-15T01:12:13;99699.83;;;12.65;70.54
24336;BME280;33098;52.400;16.880;2023-04-15T01:14:42;99696.35;;;12.57;70.56
24336;BME280;33098;52.400;16.880;2023-04-15T01:17:09;99702.65;;;12.53;70.66
24336;BME280;33098;52.400;16.880;2023-04-15T01:19:40;99705.36;;;12.50;70.83
24336;BME280;33098;52.400;16.880;2023-04-15T01:22:08;99703.32;;;12.49;70.97
24336;BME280;33098;52.400;16.880;2023-04-15T01:24:38;99706.95;;;12.50;70.93
24336;BME280;33098;52.400;16.880;2023-04-15T01:27:05;99705.16;;;12.48;71.05
24336;BME280;33098;52.400;16.880;2023-04-15T01:29:35;99711.84;;;12.46;71.03
24336;BME280;33098;52.400;16.880;2023-04-15T01:32:02;99711.91;;;12.41;71.10
24336;BME280;33098;52.400;16.880;2023-04-15T01:34:28;99712.31;;;12.39;71.33
24336;BME280;33098;52.400;16.880;2023-04-15T01:36:55;99710.86;;;12.39;71.22
24336;BME280;33098;52.400;16.880;2023-04-15T01:39:22;99713.42;;;12.39;71.28
24336;BME280;33098;52.400;16.880;2023-04-15T01:41:48;99714.52;;;12.35;71.20
24336;BME280;33098;52.400;16.880;2023-04-15T01:44:16;99716.33;;;12.33;71.39
24336;BME280;33098;52.400;16.880;2023-04-15T01:46:43;99716.63;;;12.34;71.48
24336;BME280;33098;52.400;16.880;2023-04-15T01:49:09;99711.31;;;12.30;71.48
24336;BME280;33098;52.400;16.880;2023-04-15T01:51:36;99711.66;;;12.30;71.46
24336;BME280;33098;52.400;16.880;2023-04-15T01:54:03;99715.59;;;12.30;71.57
24336;BME280;33098;52.400;16.880;2023-04-15T01:56:32;99716.52;;;12.31;71.55
24336;BME280;33098;52.400;16.880;2023-04-15T01:58:59;99714.66;;;12.30;71.65
24336;BME280;33098;52.400;16.880;2023-04-15T02:01:27;99717.63;;;12.31;71.63
24336;BME280;33098;52.400;16.880;2023-04-15T02:03:53;99721.35;;;12.31;71.64
24336;BME280;33098;52.400;16.880;2023-04-15T02:06:20;99717.36;;;12.30;71.64
24336;BME280;33098;52.400;16.880;2023-04-15T02:08:48;99718.63;;;12.31;71.82
24336;BME280;33098;52.400;16.880;2023-04-15T02:11:14;99716.83;;;12.30;71.82
24336;BME280;33098;52.400;16.880;2023-04-15T02:13:41;99717.95;;;12.31;71.86
24336;BME280;33098;52.400;16.880;2023-04-15T02:16:18;99717.59;;;12.33;72.02
24336;BME280;33098;52.400;16.880;2023-04-15T02:18:45;99718.28;;;12.35;72.01
24336;BME280;33098;52.400;16.880;2023-04-15T02:21:12;99714.54;;;12.35;72.03
24336;BME280;33098;52.400;16.880;2023-04-15T02:23:40;99715.77;;;12.37;72.09
24336;BME280;33098;52.400;16.880;2023-04-15T02:26:06;99711.61;;;12.36;71.96
24336;BME280;33098;52.400;16.880;2023-04-15T02:28:33;99711.27;;;12.36;72.17
24336;BME280;33098;52.400;16.880;2023-04-15T02:31:07;99709.97;;;12.38;72.07
24336;BME280;33098;52.400;16.880;2023-04-15T02:33:35;99711.14;;;12.42;72.18
24336;BME280;33098;52.400;16.880;2023-04-15T02:36:03;99711.85;;;12.42;72.07
24336;BME280;33098;52.400;16.880;2023-04-15T02:38:30;99711.50;;;12.44;72.06
24336;BME280;33098;52.400;16.880;2023-04-15T02:40:57;99712.01;;;12.44;71.98
24336;BME280;33098;52.400;16.880;2023-04-15T02:43:25;99716.95;;;12.45;72.11
24336;BME280;33098;52.400;16.880;2023-04-15T02:45:52;99713.83;;;12.44;72.06
24336;BME280;33098;52.400;16.880;2023-04-15T02:48:22;99716.39;;;12.45;72.21
24336;BME280;33098;52.400;16.880;2023-04-15T02:50:48;99716.56;;;12.47;72.21
24336;BME280;33098;52.400;16.880;2023-04-15T02:53:15;99711.23;;;12.47;72.21
24336;BME280;33098;52.400;16.880;2023-04-15T02:55:43;99713.18;;;12.45;72.46
24336;BME280;33098;52.400;16.880;2023-04-15T02:58:12;99713.33;;;12.43;72.51
24336;BME280;33098;52.400;16.880;2023-04-15T03:00:43;99715.02;;;12.44;72.71
24336;BME280;33098;52.400;16.880;2023-04-15T03:03:13;99716.80;;;12.46;72.85
24336;BME280;33098;52.400;16.880;2023-04-15T03:05:40;99715.26;;;12.46;72.89
24336;BME280;33098;52.400;16.880;2023-04-15T03:08:07;99714.07;;;12.41;72.91
24336;BME280;33098;52.400;16.880;2023-04-15T03:10:36;99715.98;;;12.38;73.20
24336;BME280;33098;52.400;16.880;2023-04-15T03:13:03;99713.54;;;12.38;73.62
24336;BME280;33098;52.400;16.880;2023-04-15T03:15:31;99712.70;;;12.36;73.90
24336;BME280;33098;52.400;16.880;2023-04-15T03:18:00;99716.89;;;12.35;74.13
24336;BME280;33098;52.400;16.880;2023-04-15T03:20:27;99715.65;;;12.33;74.44
24336;BME280;33098;52.400;16.880;2023-04-15T03:22:53;99717.16;;;12.28;74.53
24336;BME280;33098;52.400;16.880;2023-04-15T03:25:24;99719.02;;;12.27;74.90
24336;BME280;33098;52.400;16.880;2023-04-15T03:27:51;99717.34;;;12.28;75.21
24336;BME280;33098;52.400;16.880;2023-04-15T03:30:18;99718.76;;;12.24;75.33
24336;BME280;33098;52.400;16.880;2023-04-15T03:32:47;99725.81;;;12.19;75.57
24336;BME280;33098;52.400;16.880;2023-04-15T03:35:15;99726.29;;;12.16;75.96
24336;BME280;33098;52.400;16.880;2023-04-15T03:37:42;99727.95;;;12.12;76.30
24336;BME280;33098;52.400;16.880;2023-04-15T03:40:08;99731.69;;;12.08;76.42
24336;BME280;33098;52.400;16.880;2023-04-15T03:42:35;99729.14;;;12.07;76.85
24336;BME280;33098;52.400;16.880;2023-04-15T03:45:05;99733.58;;;12.02;77.13
24336;BME280;33098;52.400;16.880;2023-04-15T03:47:33;99735.30;;;11.99;77.35
24336;BME280;33098;52.400;16.880;2023-04-15T03:49:59;99734.61;;;11.94;77.77
24336;BME280;33098;52.400;16.880;2023-04-15T03:52:26;99740.85;;;11.86;77.95
24336;BME280;33098;52.400;16.880;2023-04-15T03:54:53;99739.72;;;11.87;78.22
24336;BME280;33098;52.400;16.880;2023-04-15T03:57:19;99741.17;;;11.88;78.55
24336;BME280;33098;52.400;16.880;2023-04-15T03:59:46;99741.10;;;11.87;78.70
24336;BME280;33098;52.400;16.880;2023-04-15T04:02:16;99743.18;;;11.84;78.82
24336;BME280;33098;52.400;16.880;2023-04-15T04:04:42;99745.71;;;11.84;79.11
24336;BME280;33098;52.400;16.880;2023-04-15T04:07:15;99744.90;;;11.83;79.28
24336;BME280;33098;52.400;16.880;2023-04-15T04:09:42;99746.77;;;11.84;79.41
24336;BME280;33098;52.400;16.880;2023-04-15T04:12:12;99745.56;;;11.82;79.60
24336;BME280;33098;52.400;16.880;2023-04-15T04:14:39;99740.46;;;11.83;79.86
24336;BME280;33098;52.400;16.880;2023-04-15T04:17:06;99742.92;;;11.85;80.01
24336;BME280;33098;52.400;16.880;2023-04-15T04:19:33;99742.10;;;11.82;80.13
24336;BME280;33098;52.400;16.880;2023-04-15T04:22:00;99745.40;;;11.79;80.22
24336;BME280;33098;52.400;16.880;2023-04-15T04:24:27;99750.19;;;11.76;80.57
24336;BME280;33098;52.400;16.880;2023-04-15T04:26:53;99749.52;;;11.75;80.77
24336;BME280;33098;52.400;16.880;2023-04-15T04:29:21;99743.81;;;11.74;81.00
24336;BME280;33098;52.400;16.880;2023-04-15T04:31:48;99744.23;;;11.73;81.31
24336;BME280;33098;52.400;16.880;2023-04-15T04:34:15;99747.49;;;11.72;81.46
24336;BME280;33098;52.400;16.880;2023-04-15T04:36:42;99750.61;;;11.71;81.61
24336;BME280;33098;52.400;16.880;2023-04-15T04:39:09;99747.86;;;11.70;81.73
24336;BME280;33098;52.400;16.880;2023-04-15T04:41:37;99751.38;;;11.67;81.98
24336;BME280;33098;52.400;16.880;2023-04-15T04:44:06;99747.43;;;11.66;82.16
24336;BME280;33098;52.400;16.880;2023-04-15T04:46:33;99752.96;;;11.65;82.27
24336;BME280;33098;52.400;16.880;2023-04-15T04:49:04;99750.30;;;11.64;82.40
24336;BME280;33098;52.400;16.880;2023-04-15T04:51:31;99756.98;;;11.64;82.64
24336;BME280;33098;52.400;16.880;2023-04-15T04:54:04;99759.56;;;11.63;82.64
24336;BME280;33098;52.400;16.880;2023-04-15T04:56:30;99755.16;;;11.60;82.78
24336;BME280;33098;52.400;16.880;2023-04-15T04:59:00;99758.81;;;11.59;82.93
24336;BME280;33098;52.400;16.880;2023-04-15T05:01:29;99758.64;;;11.59;83.20
24336;BME280;33098;52.400;16.880;2023-04-15T05:03:56;99759.73;;;11.61;83.47
24336;BME280;33098;52.400;16.880;2023-04-15T05:06:25;99764.00;;;11.61;83.50
24336;BME280;33098;52.400;16.880;2023-04-15T05:08:51;99762.73;;;11.61;83.74
24336;BME280;33098;52.400;16.880;2023-04-15T05:11:18;99761.72;;;11.60;83.91
24336;BME280;33098;52.400;16.880;2023-04-15T05:13:45;99761.84;;;11.59;84.04
24336;BME280;33098;52.400;16.880;2023-04-15T05:16:11;99759.71;;;11.57;84.11
24336;BME280;33098;52.400;16.880;2023-04-15T05:18:38;99763.52;;;11.55;84.33
24336;BME280;33098;52.400;16.880;2023-04-15T05:21:05;99764.84;;;11.52;84.53
24336;BME280;33098;52.400;16.880;2023-04-15T05:23:32;99759.39;;;11.50;84.73
24336;BME280;33098;52.400;16.880;2023-04-15T05:25:59;99763.36;;;11.49;84.98
24336;BME280;33098;52.400;16.880;2023-04-15T05:28:26;99760.60;;;11.48;85.07
24336;BME280;33098;52.400;16.880;2023-04-15T05:30:53;99768.87;;;11.43;85.22
24336;BME280;33098;52.400;16.880;2023-04-15T05:33:20;99768.64;;;11.42;85.36
24336;BME280;33098;52.400;16.880;2023-04-15T05:35:46;99770.74;;;11.44;85.69
24336;BME280;33098;52.400;16.880;2023-04-15T05:38:15;99768.61;;;11.48;85.89
24336;BME280;33098;52.400;16.880;2023-04-15T05:40:49;99768.45;;;11.49;86.14
24336;BME280;33098;52.400;16.880;2023-04-15T05:43:19;99767.45;;;11.51;86.11
24336;BME280;33098;52.400;16.880;2023-04-15T05:45:46;99771.02;;;11.50;86.20
24336;BME280;33098;52.400;16.880;2023-04-15T05:48:12;99769.79;;;11.51;86.41
24336;BME280;33098;52.400;16.880;2023-04-15T05:50:41;99771.00;;;11.53;86.53
24336;BME280;33098;52.400;16.880;2023-04-15T05:53:08;99766.84;;;11.53;86.47
24336;BME280;33098;52.400;16.880;2023-04-15T05:55:35;99772.19;;;11.51;86.51
24336;BME280;33098;52.400;16.880;2023-04-15T05:58:01;99776.92;;;11.52;86.81
24336;BME280;33098;52.400;16.880;2023-04-15T06:00:29;99778.98;;;11.53;86.93
24336;BME280;33098;52.400;16.880;2023-04-15T06:02:56;99777.23;;;11.51;86.99
24336;BME280;33098;52.400;16.880;2023-04-15T06:05:24;99779.30;;;11.55;87.26
24336;BME280;33098;52.400;16.880;2023-04-15T06:07:51;99775.69;;;11.58;87.32
24336;BME280;33098;52.400;16.880;2023-04-15T06:10:17;99782.09;;;11.54;87.52
24336;BME280;33098;52.400;16.880;2023-04-15T06:12:44;99781.61;;;11.49;87.52
24336;BME280;33098;52.400;16.880;2023-04-15T06:15:11;99787.36;;;11.51;87.75
24336;BME280;33098;52.400;16.880;2023-04-15T06:17:38;99789.03;;;11.48;88.03
24336;BME280;33098;52.400;16.880;2023-04-15T06:20:05;99792.42;;;11.50;88.27
24336;BME280;33098;52.400;16.880;2023-04-15T06:22:36;99787.27;;;11.51;88.36
24336;BME280;33098;52.400;16.880;2023-04-15T06:25:05;99788.52;;;11.52;88.56
24336;BME280;33098;52.400;16.880;2023-04-15T06:27:33;99789.73;;;11.54;88.74
24336;BME280;33098;52.400;16.880;2023-04-15T06:30:00;99793.10;;;11.58;88.96
24336;BME280;33098;52.400;16.880;2023-04-15T06:32:27;99794.86;;;11.62;89.17
24336;BME280;33098;52.400;16.880;2023-04-15T06:34:56;99796.34;;;11.59;89.06
24336;BME280;33098;52.400;16.880;2023-04-15T06:37:23;99796.34;;;11.52;89.08
24336;BME280;33098;52.400;16.880;2023-04-15T06:39:49;99795.95;;;11.52;89.36
24336;BME280;33098;52.400;16.880;2023-04-15T06:42:17;99798.61;;;11.56;89.72
24336;BME280;33098;52.400;16.880;2023-04-15T06:44:46;99801.48;;;11.61;90.04
24336;BME280;33098;52.400;16.880;2023-04-15T06:47:13;99802.61;;;11.65;90.12
24336;BME280;33098;52.400;16.880;2023-04-15T06:49:41;99806.45;;;11.66;90.14
24336;BME280;33098;52.400;16.880;2023-04-15T06:52:10;99809.71;;;11.65;90.37
24336;BME280;33098;52.400;16.880;2023-04-15T06:54:37;99811.10;;;11.67;90.58
24336;BME280;33098;52.400;16.880;2023-04-15T06:57:06;99811.58;;;11.70;90.66
24336;BME280;33098;52.400;16.880;2023-04-15T06:59:34;99809.08;;;11.72;90.81
24336;BME280;33098;52.400;16.880;2023-04-15T07:02:01;99817.98;;;11.71;90.93
24336;BME280;33098;52.400;16.880;2023-04-15T07:04:28;99820.60;;;11.72;91.17
24336;BME280;33098;52.400;16.880;2023-04-15T07:06:57;99822.57;;;11.74;91.44
24336;BME280;33098;52.400;16.880;2023-04-15T07:09:26;99825.62;;;11.77;91.69
24336;BME280;33098;52.400;16.880;2023-04-15T07:11:52;99822.67;;;11.80;91.72
24336;BME280;33098;52.400;16.880;2023-04-15T07:14:19;99825.05;;;11.83;91.87
24336;BME280;33098;52.400;16.880;2023-04-15T07:16:51;99821.95;;;11.86;92.09
24336;BME280;33098;52.400;16.880;2023-04-15T07:19:18;99826.39;;;11.88;92.29
24336;BME280;33098;52.400;16.880;2023-04-15T07:21:47;99828.55;;;11.91;92.51
24336;BME280;33098;52.400;16.880;2023-04-15T07:24:14;99825.21;;;11.95;92.48
24336;BME280;33098;52.400;16.880;2023-04-15T07:26:43;99833.07;;;11.94;92.46
24336;BME280;33098;52.400;16.880;2023-04-15T07:29:13;99841.39;;;11.95;92.55
24336;BME280;33098;52.400;16.880;2023-04-15T07:31:40;99836.71;;;11.98;92.71
24336;BME280;33098;52.400;16.880;2023-04-15T07:34:08;99840.59;;;11.98;92.82
24336;BME280;33098;52.400;16.880;2023-04-15T07:36:34;99842.48;;;11.97;92.93
24336;BME280;33098;52.400;16.880;2023-04-15T07:39:02;99843.76;;;12.00;93.18
24336;BME280;33098;52.400;16.880;2023-04-15T07:41:29;99840.40;;;12.04;93.27
24336;BME280;33098;52.400;16.880;2023-04-15T07:43:57;99845.95;;;12.07;93.40
24336;BME280;33098;52.400;16.880;2023-04-15T07:46:24;99843.63;;;12.09;93.39
24336;BME280;33098;52.400;16.880;2023-04-15T07:48:53;99844.42;;;12.12;93.47
24336;BME280;33098;52.400;16.880;2023-04-15T07:51:19;99841.33;;;12.15;93.68
24336;BME280;33098;52.400;16.880;2023-04-15T07:53:47;99846.94;;;12.16;93.77
24336;BME280;33098;52.400;16.880;2023-04-15T07:56:16;99848.80;;;12.17;93.72
24336;BME280;33098;52.400;16.880;2023-04-15T07:58:43;99848.23;;;12.13;93.57
24336;BME280;33098;52.400;16.880;2023-04-15T08:01:13;99851.40;;;12.10;93.64
24336;BME280;33098;52.400;16.880;2023-04-15T08:03:40;99849.84;;;12.11;93.83
24336;BME280;33098;52.400;16.880;2023-04-15T08:06:10;99855.13;;;12.14;93.94
24336;BME280;33098;52.400;16.880;2023-04-15T08:08:36;99857.35;;;12.11;93.78
24336;BME280;33098;52.400;16.880;2023-04-15T08:11:03;99859.29;;;12.11;94.12
24336;BME280;33098;52.400;16.880;2023-04-15T08:13:32;99868.30;;;12.10;94.09
24336;BME280;33098;52.400;16.880;2023-04-15T08:16:32;99867.89;;;12.07;94.27
24336;BME280;33098;52.400;16.880;2023-04-15T08:19:01;99869.48;;;12.03;94.38
24336;BME280;33098;52.400;16.880;2023-04-15T08:21:28;99869.17;;;12.04;94.65
24336;BME280;33098;52.400;16.880;2023-04-15T08:23:56;99870.89;;;12.05;94.85
24336;BME280;33098;52.400;16.880;2023-04-15T08:26:23;99870.65;;;12.08;95.06
24336;BME280;33098;52.400;16.880;2023-04-15T08:28:50;99872.85;;;12.09;95.13
24336;BME280;33098;52.400;16.880;2023-04-15T08:31:19;99873.95;;;12.08;95.37
24336;BME280;33098;52.400;16.880;2023-04-15T08:33:50;99878.34;;;12.09;95.71
24336;BME280;33098;52.400;16.880;2023-04-15T08:36:18;99877.86;;;12.06;96.27
24336;BME280;33098;52.400;16.880;2023-04-15T08:38:45;99879.38;;;12.05;96.66
24336;BME280;33098;52.400;16.880;2023-04-15T08:41:24;99882.46;;;12.07;97.00
24336;BME280;33098;52.400;16.880;2023-04-15T08:44:04;99883.30;;;12.09;97.12
24336;BME280;33098;52.400;16.880;2023-04-15T08:46:32;99884.56;;;12.11;97.19
24336;BME280;33098;52.400;16.880;2023-04-15T08:49:18;99885.89;;;12.06;96.95
24336;BME280;33098;52.400;16.880;2023-04-15T08:51:51;99887.24;;;12.05;97.13
24336;BME280;33098;52.400;16.880;2023-04-15T08:54:18;99890.83;;;12.05;97.32
24336;BME280;33098;52.400;16.880;2023-04-15T08:56:45;99888.66;;;12.09;97.58
24336;BME280;33098;52.400;16.880;2023-04-15T08:59:14;99891.73;;;12.14;97.76
24336;BME280;33098;52.400;16.880;2023-04-15T09:01:42;99893.64;;;12.18;98.02
24336;BME280;33098;52.400;16.880;2023-04-15T09:04:10;99891.23;;;12.23;98.16
24336;BME280;33098;52.400;16.880;2023-04-15T09:06:39;99888.18;;;12.29;98.38
24336;BME280;33098;52.400;16.880;2023-04-15T09:09:06;99891.17;;;12.35;98.49
24336;BME280;33098;52.400;16.880;2023-04-15T09:11:36;99896.92;;;12.42;98.57
24336;BME280;33098;52.400;16.880;2023-04-15T09:14:03;99899.54;;;12.50;98.79
24336;BME280;33098;52.400;16.880;2023-04-15T09:16:59;99900.19;;;12.56;98.68
24336;BME280;33098;52.400;16.880;2023-04-15T09:19:26;99899.18;;;12.59;98.59
24336;BME280;33098;52.400;16.880;2023-04-15T09:21:54;99905.85;;;12.61;98.54
24336;BME280;33098;52.400;16.880;2023-04-15T09:24:27;99901.48;;;12.64;98.53
24336;BME280;33098;52.400;16.880;2023-04-15T09:26:59;99906.16;;;12.67;98.58
24336;BME280;33098;52.400;16.880;2023-04-15T09:29:31;99907.70;;;12.67;98.77
24336;BME280;33098;52.400;16.880;2023-04-15T09:32:14;99907.02;;;12.71;98.72
24336;BME280;33098;52.400;16.880;2023-04-15T09:34:44;99910.69;;;12.71;98.69
24336;BME280;33098;52.400;16.880;2023-04-15T09:37:13;99909.39;;;12.69;98.59
24336;BME280;33098;52.400;16.880;2023-04-15T09:39:51;99910.57;;;12.73;98.86
24336;BME280;33098;52.400;16.880;2023-04-15T09:42:18;99911.13;;;12.78;99.05
24336;BME280;33098;52.400;16.880;2023-04-15T09:44:50;99913.81;;;12.83;99.30
24336;BME280;33098;52.400;16.880;2023-04-15T09:47:33;99912.19;;;12.93;99.67
24336;BME280;33098;52.400;16.880;2023-04-15T09:50:08;99914.45;;;13.03;99.85
24336;BME280;33098;52.400;16.880;2023-04-15T09:52:40;99921.28;;;13.15;99.98
24336;BME280;33098;52.400;16.880;2023-04-15T09:55:12;99933.27;;;13.18;99.77
24336;BME280;33098;52.400;16.880;2023-04-15T09:57:44;99935.50;;;12.91;97.86
24336;BME280;33098;52.400;16.880;2023-04-15T10:00:13;99934.41;;;12.66;96.88
24336;BME280;33098;52.400;16.880;2023-04-15T10:02:44;99933.35;;;12.58;96.62
24336;BME280;33098;52.400;16.880;2023-04-15T10:05:14;99935.30;;;12.43;95.79
24336;BME280;33098;52.400;16.880;2023-04-15T10:07:45;99931.70;;;12.41;96.03
24336;BME280;33098;52.400;16.880;2023-04-15T10:10:20;99930.98;;;12.43;96.07
24336;BME280;33098;52.400;16.880;2023-04-15T10:12:47;99933.79;;;12.38;95.56
24336;BME280;33098;52.400;16.880;2023-04-15T10:15:15;99940.12;;;12.31;95.10
24336;BME280;33098;52.400;16.880;2023-04-15T10:17:46;99938.05;;;12.15;94.36
24336;BME280;33098;52.400;16.880;2023-04-15T10:20:16;99940.02;;;12.11;94.44
24336;BME280;33098;52.400;16.880;2023-04-15T10:22:45;99943.43;;;11.95;93.63
24336;BME280;33098;52.400;16.880;2023-04-15T10:25:14;99943.20;;;11.78;93.20
24336;BME280;33098;52.400;16.880;2023-04-15T10:27:45;99946.79;;;11.82;93.96
24336;BME280;33098;52.400;16.880;2023-04-15T10:30:14;99945.36;;;11.82;94.06
24336;BME280;33098;52.400;16.880;2023-04-15T10:32:42;99943.40;;;11.84;94.36
24336;BME280;33098;52.400;16.880;2023-04-15T10:35:11;99948.75;;;11.84;94.28
24336;BME280;33098;52.400;16.880;2023-04-15T10:37:38;99951.67;;;11.87;94.64
24336;BME280;33098;52.400;16.880;2023-04-15T10:40:26;99948.33;;;11.86;94.57
24336;BME280;33098;52.400;16.880;2023-04-15T10:42:58;99948.82;;;11.85;94.60
24336;BME280;33098;52.400;16.880;2023-04-15T10:45:31;99954.21;;;12.00;95.31
24336;BME280;33098;52.400;16.880;2023-04-15T10:48:01;99954.44;;;12.11;95.49
24336;BME280;33098;52.400;16.880;2023-04-15T10:50:29;99956.39;;;12.17;95.37
24336;BME280;33098;52.400;16.880;2023-04-15T10:52:57;99961.30;;;12.21;95.22
24336;BME280;33098;52.400;16.880;2023-04-15T10:55:26;99963.86;;;12.24;95.13
24336;BME280;33098;52.400;16.880;2023-04-15T10:57:58;99961.85;;;12.21;94.79
24336;BME280;33098;52.400;16.880;2023-04-15T11:00:31;99963.39;;;12.30;94.98
24336;BME280;33098;52.400;16.880;2023-04-15T11:03:05;99963.97;;;12.35;94.62
24336;BME280;33098;52.400;16.880;2023-04-15T11:08:11;99968.30;;;12.15;93.28
24336;BME280;33098;52.400;16.880;2023-04-15T11:13:16;99970.54;;;11.97;93.33
24336;BME280;33098;52.400;16.880;2023-04-15T11:15:47;99970.73;;;11.97;93.64
24336;BME280;33098;52.400;16.880;2023-04-15T11:18:21;99966.69;;;11.93;93.76
24336;BME280;33098;52.400;16.880;2023-04-15T11:20:51;99971.05;;;11.90;94.03
24336;BME280;33098;52.400;16.880;2023-04-15T11:23:27;99978.79;;;11.93;94.22
24336;BME280;33098;52.400;16.880;2023-04-15T11:25:55;99979.64;;;12.00;94.50
24336;BME280;33098;52.400;16.880;2023-04-15T11:28:27;99984.39;;;12.20;95.15
24336;BME280;33098;52.400;16.880;2023-04-15T11:31:02;99986.00;;;12.34;95.49
24336;BME280;33098;52.400;16.880;2023-04-15T11:33:31;99989.84;;;12.36;95.29
24336;BME280;33098;52.400;16.880;2023-04-15T11:35:58;99992.69;;;12.33;94.96
24336;BME280;33098;52.400;16.880;2023-04-15T11:38:25;99994.25;;;12.37;95.29
24336;BME280;33098;52.400;16.880;2023-04-15T11:40:51;99998.59;;;12.47;95.53
24336;BME280;33098;52.400;16.880;2023-04-15T11:43:20;99995.66;;;12.56;95.30
24336;BME280;33098;52.400;16.880;2023-04-15T11:45:58;100000.68;;;12.50;94.54
24336;BME280;33098;52.400;16.880;2023-04-15T11:48:27;100000.04;;;12.51;94.47
24336;BME280;33098;52.400;16.880;2023-04-15T11:51:05;100001.68;;;12.54;94.38
24336;BME280;33098;52.400;16.880;2023-04-15T11:56:05;100002.31;;;12.58;94.02
24336;BME280;33098;52.400;16.880;2023-04-15T11:58:36;100004.10;;;12.55;93.79
24336;BME280;33098;52.400;16.880;2023-04-15T12:01:08;100008.22;;;12.58;94.03
24336;BME280;33098;52.400;16.880;2023-04-15T12:03:40;100012.20;;;12.66;94.11
24336;BME280;33098;52.400;16.880;2023-04-15T12:06:19;100018.31;;;12.73;94.08
24336;BME280;33098;52.400;16.880;2023-04-15T12:09:02;100017.74;;;12.73;93.99
24336;BME280;33098;52.400;16.880;2023-04-15T12:11:50;100022.30;;;12.77;93.72
24336;BME280;33098;52.400;16.880;2023-04-15T12:17:01;100025.30;;;12.70;93.12
24336;BME280;33098;52.400;16.880;2023-04-15T12:19:30;100030.13;;;12.66;92.79
24336;BME280;33098;52.400;16.880;2023-04-15T12:22:05;100031.86;;;12.63;92.66
24336;BME280;33098;52.400;16.880;2023-04-15T12:24:35;100034.05;;;12.43;91.90
24336;BME280;33098;52.400;16.880;2023-04-15T12:27:05;100035.30;;;12.27;92.00
24336;BME280;33098;52.400;16.880;2023-04-15T12:29:34;100036.56;;;12.23;92.25
24336;BME280;33098;52.400;16.880;2023-04-15T12:32:12;100040.45;;;12.20;92.61
24336;BME280;33098;52.400;16.880;2023-04-15T12:34:46;100039.73;;;12.08;92.55
24336;BME280;33098;52.400;16.880;2023-04-15T12:37:16;100043.36;;;12.08;93.19
24336;BME280;33098;52.400;16.880;2023-04-15T12:39:44;100044.01;;;12.02;93.32
24336;BME280;33098;52.400;16.880;2023-04-15T12:42:11;100047.98;;;12.03;93.87
24336;BME280;33098;52.400;16.880;2023-04-15T12:44:39;100048.46;;;11.94;93.65
24336;BME280;33098;52.400;16.880;2023-04-15T12:47:09;100048.91;;;11.91;94.07
24336;BME280;33098;52.400;16.880;2023-04-15T12:49:36;100051.98;;;11.84;94.26
24336;BME280;33098;52.400;16.880;2023-04-15T12:52:03;100052.16;;;11.83;94.79
24336;BME280;33098;52.400;16.880;2023-04-15T12:54:30;100052.83;;;11.85;95.35
24336;BME280;33098;52.400;16.880;2023-04-15T12:56:58;100054.32;;;11.96;96.01
24336;BME280;33098;52.400;16.880;2023-04-15T12:59:26;100054.27;;;12.11;96.56
24336;BME280;33098;52.400;16.880;2023-04-15T13:01:54;100056.13;;;12.14;96.29
24336;BME280;33098;52.400;16.880;2023-04-15T13:04:23;100058.86;;;12.01;95.79
24336;BME280;33098;52.400;16.880;2023-04-15T13:06:50;100060.23;;;11.96;95.92